sensor_id;sensor_type;location;lat;lon;timestamp;temperature;humidity
21425;DHT22;10873;51.132;16.848;2023-05-10T00:01:23;26.80;46.60
21425;DHT22;10873;51.132;16.848;2023-05-10T00:03:51;26.70;46.50
21425;DHT22;10873;51.132;16.848;2023-05-10T00:06:17;26.70;46.50
21425;DHT22;10873;51.132;16.848;2023-05-10T00:08:44;26.70;46.50
21425;DHT22;10873;51.132;16.848;2023-05-10T00:11:11;26.70;46.50
21425;DHT22;10873;51.132;16.848;2023-05-10T00:13:37;26.80;47.20
21425;DHT22;10873;51.132;16.848;2023-05-10T00:16:04;26.70;46.50
21425;DHT22;10873;51.132;16.848;2023-05-10T00:18:30;26.70;46.50
21425;DHT22;10873;51.132;16.848;2023-05-10T00:20:58;26.70;46.50
21425;DHT22;10873;51.132;16.848;2023-05-10T00:23:24;26.70;46.50
21425;DHT22;10873;51.132;16.848;2023-05-10T00:25:50;26.70;46.50
21425;DHT22;10873;51.132;16.848;2023-05-10T00:28:17;26.70;46.50
21425;DHT22;10873;51.132;16.848;2023-05-10T00:30:43;26.70;46.50
21425;DHT22;10873;51.132;16.848;2023-05-10T00:33:09;26.70;46.50
21425;DHT22;10873;51.132;16.848;2023-05-10T00:35:35;26.70;46.50
21425;DHT22;10873;51.132;16.848;2023-05-10T00:38:03;26.60;46.40
21425;DHT22;10873;51.132;16.848;2023-05-10T00:40:29;26.70;47.20
21425;DHT22;10873;51.132;16.848;2023-05-10T00:42:56;26.60;46.50
21425;DHT22;10873;51.132;16.848;2023-05-10T00:45:23;26.60;46.40
21425;DHT22;10873;51.132;16.848;2023-05-10T00:47:49;26.60;46.50
21425;DHT22;10873;51.132;16.848;2023-05-10T00:50:15;26.60;46.40
21425;DHT22;10873;51.132;16.848;2023-05-10T00:52:42;26.60;46.40
21425;DHT22;10873;51.132;16.848;2023-05-10T00:55:11;26.60;46.50
21425;DHT22;10873;51.132;16.848;2023-05-10T00:57:38;26.60;46.50
21425;DHT22;10873;51.132;16.848;2023-05-10T01:00:05;26.60;46.40
21425;DHT22;10873;51.132;16.848;2023-05-10T01:02:33;26.60;46.50
21425;DHT22;10873;51.132;16.848;2023-05-10T01:05:00;26.60;46.50
21425;DHT22;10873;51.132;16.848;2023-05-10T01:07:27;26.60;46.50
21425;DHT22;10873;51.132;16.848;2023-05-10T01:09:53;26.50;46.50
21425;DHT22;10873;51.132;16.848;2023-05-10T01:12:21;26.50;46.50
21425;DHT22;10873;51.132;16.848;2023-05-10T01:14:48;26.60;46.50
21425;DHT22;10873;51.132;16.848;2023-05-10T01:17:14;26.50;46.50
21425;DHT22;10873;51.132;16.848;2023-05-10T01:19:42;26.50;46.50
21425;DHT22;10873;51.132;16.848;2023-05-10T01:22:25;26.50;46.50
21425;DHT22;10873;51.132;16.848;2023-05-10T01:25:14;26.50;46.50
21425;DHT22;10873;51.132;16.848;2023-05-10T01:31:07;26.50;46.50
21425;DHT22;10873;51.132;16.848;2023-05-10T01:33:40;26.40;46.40
21425;DHT22;10873;51.132;16.848;2023-05-10T01:36:14;26.40;46.40
21425;DHT22;10873;51.132;16.848;2023-05-10T01:38:47;26.50;46.50
21425;DHT22;10873;51.132;16.848;2023-05-10T01:41:19;26.40;46.40
21425;DHT22;10873;51.132;16.848;2023-05-10T01:43:53;26.40;46.40
21425;DHT22;10873;51.132;16.848;2023-05-10T01:46:26;26.40;46.40
21425;DHT22;10873;51.132;16.848;2023-05-10T01:48:55;26.40;46.40
21425;DHT22;10873;51.132;16.848;2023-05-10T01:51:26;26.40;46.50
21425;DHT22;10873;51.132;16.848;2023-05-10T01:53:58;26.30;46.40
21425;DHT22;10873;51.132;16.848;2023-05-10T01:56:26;26.30;46.40
21425;DHT22;10873;51.132;16.848;2023-05-10T01:58:55;26.30;46.40
21425;DHT22;10873;51.132;16.848;2023-05-10T02:01:22;26.30;46.40
21425;DHT22;10873;51.132;16.848;2023-05-10T02:03:51;26.30;46.50
21425;DHT22;10873;51.132;16.848;2023-05-10T02:06:20;26.30;46.50
21425;DHT22;10873;51.132;16.848;2023-05-10T02:08:49;26.30;46.50
21425;DHT22;10873;51.132;16.848;2023-05-10T02:11:17;26.30;46.50
21425;DHT22;10873;51.132;16.848;2023-05-10T02:13:45;26.30;46.50
21425;DHT22;10873;51.132;16.848;2023-05-10T02:16:13;26.30;46.50
21425;DHT22;10873;51.132;16.848;2023-05-10T02:18:40;26.30;46.50
21425;DHT22;10873;51.132;16.848;2023-05-10T02:21:08;26.30;46.50
21425;DHT22;10873;51.132;16.848;2023-05-10T02:23:37;26.30;46.50
21425;DHT22;10873;51.132;16.848;2023-05-10T02:26:04;26.20;46.50
21425;DHT22;10873;51.132;16.848;2023-05-10T02:28:33;26.30;46.50
21425;DHT22;10873;51.132;16.848;2023-05-10T02:31:01;26.20;46.50
21425;DHT22;10873;51.132;16.848;2023-05-10T02:33:28;26.30;46.50
21425;DHT22;10873;51.132;16.848;2023-05-10T02:35:56;26.20;46.50
21425;DHT22;10873;51.132;16.848;2023-05-10T02:38:24;26.20;46.50
21425;DHT22;10873;51.132;16.848;2023-05-10T02:40:52;26.20;46.50
21425;DHT22;10873;51.132;16.848;2023-05-10T02:43:23;26.20;46.50
21425;DHT22;10873;51.132;16.848;2023-05-10T02:45:49;26.20;46.50
21425;DHT22;10873;51.132;16.848;2023-05-10T02:48:16;26.10;46.50
21425;DHT22;10873;51.132;16.848;2023-05-10T02:50:44;26.10;46.50
21425;DHT22;10873;51.132;16.848;2023-05-10T02:53:15;26.10;46.50
21425;DHT22;10873;51.132;16.848;2023-05-10T02:55:45;26.10;46.50
21425;DHT22;10873;51.132;16.848;2023-05-10T02:58:15;26.10;46.50
21425;DHT22;10873;51.132;16.848;2023-05-10T03:00:40;26.10;46.50
21425;DHT22;10873;51.132;16.848;2023-05-10T03:03:07;26.10;46.50
21425;DHT22;10873;51.132;16.848;2023-05-10T03:05:33;26.10;46.50
21425;DHT22;10873;51.132;16.848;2023-05-10T03:07:59;26.10;46.50
21425;DHT22;10873;51.132;16.848;2023-05-10T03:10:30;26.10;46.50
21425;DHT22;10873;51.132;16.848;2023-05-10T03:13:06;26.10;46.50
21425;DHT22;10873;51.132;16.848;2023-05-10T03:15:45;26.00;46.50
21425;DHT22;10873;51.132;16.848;2023-05-10T03:18:17;26.00;46.50
21425;DHT22;10873;51.132;16.848;2023-05-10T03:20:47;26.00;46.50
21425;DHT22;10873;51.132;16.848;2023-05-10T03:23:21;26.10;46.60
21425;DHT22;10873;51.132;16.848;2023-05-10T03:25:48;26.10;46.50
21425;DHT22;10873;51.132;16.848;2023-05-10T03:28:18;26.00;46.50
21425;DHT22;10873;51.132;16.848;2023-05-10T03:30:45;26.00;46.50
21425;DHT22;10873;51.132;16.848;2023-05-10T03:33:12;26.00;46.50
21425;DHT22;10873;51.132;16.848;2023-05-10T03:35:39;26.00;46.50
21425;DHT22;10873;51.132;16.848;2023-05-10T03:38:05;26.00;46.50
21425;DHT22;10873;51.132;16.848;2023-05-10T03:40:33;26.00;46.50
21425;DHT22;10873;51.132;16.848;2023-05-10T03:43:00;26.00;46.60
21425;DHT22;10873;51.132;16.848;2023-05-10T03:45:26;26.00;46.60
21425;DHT22;10873;51.132;16.848;2023-05-10T03:48:00;26.00;46.60
21425;DHT22;10873;51.132;16.848;2023-05-10T03:50:27;26.00;46.60
21425;DHT22;10873;51.132;16.848;2023-05-10T03:52:53;26.00;46.60
21425;DHT22;10873;51.132;16.848;2023-05-10T03:55:21;26.00;46.70
21425;DHT22;10873;51.132;16.848;2023-05-10T03:57:50;26.00;46.70
21425;DHT22;10873;51.132;16.848;2023-05-10T04:00:16;25.90;46.70
21425;DHT22;10873;51.132;16.848;2023-05-10T04:02:43;25.90;46.70
21425;DHT22;10873;51.132;16.848;2023-05-10T04:05:11;25.90;46.70
21425;DHT22;10873;51.132;16.848;2023-05-10T04:07:37;25.90;46.70
21425;DHT22;10873;51.132;16.848;2023-05-10T04:10:04;25.90;46.70
21425;DHT22;10873;51.132;16.848;2023-05-10T04:12:30;25.90;46.70
21425;DHT22;10873;51.132;16.848;2023-05-10T04:14:59;25.90;46.80
21425;DHT22;10873;51.132;16.848;2023-05-10T04:17:26;25.90;46.80
21425;DHT22;10873;51.132;16.848;2023-05-10T04:19:52;25.90;46.80
21425;DHT22;10873;51.132;16.848;2023-05-10T04:22:22;25.90;46.80
21425;DHT22;10873;51.132;16.848;2023-05-10T04:24:48;25.90;46.80
21425;DHT22;10873;51.132;16.848;2023-05-10T04:27:16;25.90;46.80
21425;DHT22;10873;51.132;16.848;2023-05-10T04:29:42;25.90;46.80
21425;DHT22;10873;51.132;16.848;2023-05-10T04:32:09;26.00;46.80
21425;DHT22;10873;51.132;16.848;2023-05-10T04:34:35;25.90;46.70
21425;DHT22;10873;51.132;16.848;2023-05-10T04:37:02;26.00;46.80
21425;DHT22;10873;51.132;16.848;2023-05-10T04:39:29;26.00;46.80
21425;DHT22;10873;51.132;16.848;2023-05-10T04:41:55;26.00;46.90
21425;DHT22;10873;51.132;16.848;2023-05-10T04:44:21;26.00;46.80
21425;DHT22;10873;51.132;16.848;2023-05-10T04:46:47;26.00;46.90
21425;DHT22;10873;51.132;16.848;2023-05-10T04:49:13;25.90;46.80
21425;DHT22;10873;51.132;16.848;2023-05-10T04:51:40;26.00;46.90
21425;DHT22;10873;51.132;16.848;2023-05-10T04:54:06;26.00;47.00
21425;DHT22;10873;51.132;16.848;2023-05-10T04:56:33;26.00;47.10
21425;DHT22;10873;51.132;16.848;2023-05-10T04:58:59;26.00;47.10
21425;DHT22;10873;51.132;16.848;2023-05-10T05:01:25;26.00;47.20
21425;DHT22;10873;51.132;16.848;2023-05-10T05:03:51;26.00;47.30
21425;DHT22;10873;51.132;16.848;2023-05-10T05:06:18;26.00;47.30
21425;DHT22;10873;51.132;16.848;2023-05-10T05:08:46;25.90;47.30
21425;DHT22;10873;51.132;16.848;2023-05-10T05:11:12;25.90;47.30
21425;DHT22;10873;51.132;16.848;2023-05-10T05:13:39;25.90;47.50
21425;DHT22;10873;51.132;16.848;2023-05-10T05:16:06;25.90;47.70
21425;DHT22;10873;51.132;16.848;2023-05-10T05:18:32;26.00;47.90
21425;DHT22;10873;51.132;16.848;2023-05-10T05:20:59;26.00;48.10
21425;DHT22;10873;51.132;16.848;2023-05-10T05:23:25;26.00;48.20
21425;DHT22;10873;51.132;16.848;2023-05-10T05:25:51;26.00;48.40
21425;DHT22;10873;51.132;16.848;2023-05-10T05:28:18;26.00;48.50
21425;DHT22;10873;51.132;16.848;2023-05-10T05:30:45;26.10;48.60
21425;DHT22;10873;51.132;16.848;2023-05-10T05:33:12;26.10;48.60
21425;DHT22;10873;51.132;16.848;2023-05-10T05:35:39;26.10;48.70
21425;DHT22;10873;51.132;16.848;2023-05-10T05:38:05;26.10;48.70
21425;DHT22;10873;51.132;16.848;2023-05-10T05:40:31;26.10;48.70
21425;DHT22;10873;51.132;16.848;2023-05-10T05:42:57;26.10;48.70
21425;DHT22;10873;51.132;16.848;2023-05-10T05:45:24;26.10;48.70
21425;DHT22;10873;51.132;16.848;2023-05-10T05:47:51;26.20;48.80
21425;DHT22;10873;51.132;16.848;2023-05-10T05:50:17;26.20;48.80
21425;DHT22;10873;51.132;16.848;2023-05-10T05:52:43;26.20;48.80
21425;DHT22;10873;51.132;16.848;2023-05-10T05:55:09;26.20;48.70
21425;DHT22;10873;51.132;16.848;2023-05-10T05:57:35;26.20;48.70
21425;DHT22;10873;51.132;16.848;2023-05-10T06:00:01;26.20;48.80
21425;DHT22;10873;51.132;16.848;2023-05-10T06:02:28;26.20;48.70
21425;DHT22;10873;51.132;16.848;2023-05-10T06:04:56;26.20;48.70
21425;DHT22;10873;51.132;16.848;2023-05-10T06:07:22;26.20;48.70
21425;DHT22;10873;51.132;16.848;2023-05-10T06:09:48;26.30;48.70
21425;DHT22;10873;51.132;16.848;2023-05-10T06:12:14;26.30;48.70
21425;DHT22;10873;51.132;16.848;2023-05-10T06:14:40;26.30;48.70
21425;DHT22;10873;51.132;16.848;2023-05-10T06:17:06;26.30;48.70
21425;DHT22;10873;51.132;16.848;2023-05-10T06:19:32;26.30;48.70
21425;DHT22;10873;51.132;16.848;2023-05-10T06:21:59;26.30;48.60
21425;DHT22;10873;51.132;16.848;2023-05-10T06:24:25;26.30;48.60
21425;DHT22;10873;51.132;16.848;2023-05-10T06:26:53;26.30;48.60
21425;DHT22;10873;51.132;16.848;2023-05-10T06:29:18;26.30;48.60
21425;DHT22;10873;51.132;16.848;2023-05-10T06:31:44;26.30;48.60
21425;DHT22;10873;51.132;16.848;2023-05-10T06:34:11;26.30;48.60
21425;DHT22;10873;51.132;16.848;2023-05-10T06:36:37;26.30;48.60
21425;DHT22;10873;51.132;16.848;2023-05-10T06:39:04;26.30;49.30
21425;DHT22;10873;51.132;16.848;2023-05-10T06:41:31;26.30;48.60
21425;DHT22;10873;51.132;16.848;2023-05-10T06:43:57;26.30;48.50
21425;DHT22;10873;51.132;16.848;2023-05-10T06:46:23;26.30;48.50
21425;DHT22;10873;51.132;16.848;2023-05-10T06:48:49;26.30;48.50
21425;DHT22;10873;51.132;16.848;2023-05-10T06:51:15;26.30;48.50
21425;DHT22;10873;51.132;16.848;2023-05-10T06:53:41;26.30;49.00
21425;DHT22;10873;51.132;16.848;2023-05-10T06:56:09;26.30;49.70
21425;DHT22;10873;51.132;16.848;2023-05-10T06:58:35;26.30;50.50
21425;DHT22;10873;51.132;16.848;2023-05-10T07:01:02;26.30;51.30
21425;DHT22;10873;51.132;16.848;2023-05-10T07:03:28;26.30;51.70
21425;DHT22;10873;51.132;16.848;2023-05-10T07:06:00;26.40;51.50
21425;DHT22;10873;51.132;16.848;2023-05-10T07:08:29;26.50;51.70
21425;DHT22;10873;51.132;16.848;2023-05-10T07:10:59;26.50;52.30
21425;DHT22;10873;51.132;16.848;2023-05-10T07:13:27;26.60;54.50
21425;DHT22;10873;51.132;16.848;2023-05-10T07:15:53;26.90;56.10
21425;DHT22;10873;51.132;16.848;2023-05-10T07:18:19;27.30;57.90
21425;DHT22;10873;51.132;16.848;2023-05-10T07:20:45;27.60;57.70
21425;DHT22;10873;51.132;16.848;2023-05-10T07:23:11;28.10;59.30
21425;DHT22;10873;51.132;16.848;2023-05-10T07:25:37;28.40;59.00
21425;DHT22;10873;51.132;16.848;2023-05-10T07:28:03;28.80;59.00
21425;DHT22;10873;51.132;16.848;2023-05-10T07:30:31;29.20;58.70
21425;DHT22;10873;51.132;16.848;2023-05-10T07:32:57;29.50;57.90
21425;DHT22;10873;51.132;16.848;2023-05-10T07:35:23;29.80;57.90
21425;DHT22;10873;51.132;16.848;2023-05-10T07:37:49;30.10;58.00
21425;DHT22;10873;51.132;16.848;2023-05-10T07:40:15;30.40;57.70
21425;DHT22;10873;51.132;16.848;2023-05-10T07:42:41;30.70;57.60
21425;DHT22;10873;51.132;16.848;2023-05-10T07:45:08;30.90;57.20
21425;DHT22;10873;51.132;16.848;2023-05-10T07:47:36;31.20;57.10
21425;DHT22;10873;51.132;16.848;2023-05-10T07:50:02;31.40;57.00
21425;DHT22;10873;51.132;16.848;2023-05-10T07:52:28;31.70;58.00
21425;DHT22;10873;51.132;16.848;2023-05-10T07:54:54;31.70;58.00
21425;DHT22;10873;51.132;16.848;2023-05-10T07:57:20;31.60;56.90
21425;DHT22;10873;51.132;16.848;2023-05-10T07:59:46;31.50;59.00
21425;DHT22;10873;51.132;16.848;2023-05-10T08:02:12;31.70;58.50
21425;DHT22;10873;51.132;16.848;2023-05-10T08:04:40;31.90;57.80
21425;DHT22;10873;51.132;16.848;2023-05-10T08:07:05;32.00;57.30
21425;DHT22;10873;51.132;16.848;2023-05-10T08:09:32;32.20;56.50
21425;DHT22;10873;51.132;16.848;2023-05-10T08:11:58;32.10;55.50
21425;DHT22;10873;51.132;16.848;2023-05-10T08:14:25;32.00;55.50
21425;DHT22;10873;51.132;16.848;2023-05-10T08:16:51;31.80;55.60
21425;DHT22;10873;51.132;16.848;2023-05-10T08:19:17;31.60;55.40
21425;DHT22;10873;51.132;16.848;2023-05-10T08:21:46;31.40;55.10
21425;DHT22;10873;51.132;16.848;2023-05-10T08:24:12;31.20;52.60
21425;DHT22;10873;51.132;16.848;2023-05-10T08:26:38;30.90;49.40
21425;DHT22;10873;51.132;16.848;2023-05-10T08:29:04;30.70;47.50
21425;DHT22;10873;51.132;16.848;2023-05-10T08:31:30;30.40;46.50
21425;DHT22;10873;51.132;16.848;2023-05-10T08:33:56;30.20;46.00
21425;DHT22;10873;51.132;16.848;2023-05-10T08:36:22;29.90;45.20
21425;DHT22;10873;51.132;16.848;2023-05-10T08:38:51;29.70;44.60
21425;DHT22;10873;51.132;16.848;2023-05-10T08:41:20;29.50;44.70
21425;DHT22;10873;51.132;16.848;2023-05-10T08:43:47;29.30;44.90
21425;DHT22;10873;51.132;16.848;2023-05-10T08:46:15;29.10;44.90
21425;DHT22;10873;51.132;16.848;2023-05-10T08:48:44;29.00;45.10
21425;DHT22;10873;51.132;16.848;2023-05-10T08:51:12;28.90;45.00
21425;DHT22;10873;51.132;16.848;2023-05-10T08:53:39;28.70;45.20
21425;DHT22;10873;51.132;16.848;2023-05-10T08:56:07;28.60;45.50
21425;DHT22;10873;51.132;16.848;2023-05-10T08:58:33;28.50;45.60
21425;DHT22;10873;51.132;16.848;2023-05-10T09:01:00;28.40;45.80
21425;DHT22;10873;51.132;16.848;2023-05-10T09:03:27;28.30;45.70
21425;DHT22;10873;51.132;16.848;2023-05-10T09:05:53;28.20;45.60
21425;DHT22;10873;51.132;16.848;2023-05-10T09:08:23;28.20;45.60
21425;DHT22;10873;51.132;16.848;2023-05-10T09:10:51;28.10;45.70
21425;DHT22;10873;51.132;16.848;2023-05-10T09:13:19;28.00;45.80
21425;DHT22;10873;51.132;16.848;2023-05-10T09:15:45;27.90;46.00
21425;DHT22;10873;51.132;16.848;2023-05-10T09:18:12;27.80;46.00
21425;DHT22;10873;51.132;16.848;2023-05-10T09:20:38;27.80;46.30
21425;DHT22;10873;51.132;16.848;2023-05-10T09:23:04;27.70;46.50
21425;DHT22;10873;51.132;16.848;2023-05-10T09:25:30;27.60;46.50
21425;DHT22;10873;51.132;16.848;2023-05-10T09:27:59;27.60;46.70
21425;DHT22;10873;51.132;16.848;2023-05-10T09:30:27;27.50;46.80
21425;DHT22;10873;51.132;16.848;2023-05-10T09:32:55;27.40;46.90
21425;DHT22;10873;51.132;16.848;2023-05-10T09:35:22;27.40;46.80
21425;DHT22;10873;51.132;16.848;2023-05-10T09:37:51;27.30;46.70
21425;DHT22;10873;51.132;16.848;2023-05-10T09:40:21;27.30;46.90
21425;DHT22;10873;51.132;16.848;2023-05-10T09:42:52;27.30;47.00
21425;DHT22;10873;51.132;16.848;2023-05-10T09:45:18;27.20;47.00
21425;DHT22;10873;51.132;16.848;2023-05-10T09:47:45;27.10;46.90
21425;DHT22;10873;51.132;16.848;2023-05-10T09:50:12;27.10;46.90
21425;DHT22;10873;51.132;16.848;2023-05-10T09:52:46;27.00;46.80
21425;DHT22;10873;51.132;16.848;2023-05-10T09:55:12;27.00;46.80
21425;DHT22;10873;51.132;16.848;2023-05-10T09:57:39;26.90;46.60
21425;DHT22;10873;51.132;16.848;2023-05-10T10:00:06;26.90;46.70
21425;DHT22;10873;51.132;16.848;2023-05-10T10:02:33;26.80;47.60
21425;DHT22;10873;51.132;16.848;2023-05-10T10:05:01;26.70;46.90
21425;DHT22;10873;51.132;16.848;2023-05-10T10:07:29;26.70;47.00
21425;DHT22;10873;51.132;16.848;2023-05-10T10:09:55;26.70;47.10
21425;DHT22;10873;51.132;16.848;2023-05-10T10:12:21;26.70;47.30
21425;DHT22;10873;51.132;16.848;2023-05-10T10:14:47;26.60;47.40
21425;DHT22;10873;51.132;16.848;2023-05-10T10:17:15;26.60;47.40
21425;DHT22;10873;51.132;16.848;2023-05-10T10:19:41;26.60;47.20
21425;DHT22;10873;51.132;16.848;2023-05-10T10:22:09;26.60;47.30
21425;DHT22;10873;51.132;16.848;2023-05-10T10:24:38;26.60;47.50
21425;DHT22;10873;51.132;16.848;2023-05-10T10:27:16;26.50;47.00
21425;DHT22;10873;51.132;16.848;2023-05-10T10:29:52;26.50;47.00
21425;DHT22;10873;51.132;16.848;2023-05-10T10:32:25;26.50;47.10
21425;DHT22;10873;51.132;16.848;2023-05-10T10:34:54;26.40;47.40
21425;DHT22;10873;51.132;16.848;2023-05-10T10:37:22;26.40;47.40
21425;DHT22;10873;51.132;16.848;2023-05-10T10:39:48;26.40;47.50
21425;DHT22;10873;51.132;16.848;2023-05-10T10:42:44;26.30;47.60
21425;DHT22;10873;51.132;16.848;2023-05-10T10:45:12;26.30;47.60
21425;DHT22;10873;51.132;16.848;2023-05-10T10:47:39;26.30;47.80
21425;DHT22;10873;51.132;16.848;2023-05-10T10:50:06;26.30;47.70
21425;DHT22;10873;51.132;16.848;2023-05-10T10:52:35;26.30;47.60
21425;DHT22;10873;51.132;16.848;2023-05-10T10:55:04;26.30;47.80
21425;DHT22;10873;51.132;16.848;2023-05-10T10:57:32;26.30;47.80
21425;DHT22;10873;51.132;16.848;2023-05-10T11:00:18;26.30;47.80
21425;DHT22;10873;51.132;16.848;2023-05-10T11:02:45;26.20;47.80
21425;DHT22;10873;51.132;16.848;2023-05-10T11:05:39;26.20;47.70
21425;DHT22;10873;51.132;16.848;2023-05-10T11:08:11;26.30;48.10
21425;DHT22;10873;51.132;16.848;2023-05-10T11:10:37;26.20;48.30
21425;DHT22;10873;51.132;16.848;2023-05-10T11:13:06;26.20;48.40
21425;DHT22;10873;51.132;16.848;2023-05-10T11:15:33;26.30;48.40
21425;DHT22;10873;51.132;16.848;2023-05-10T11:18:00;26.20;48.30
21425;DHT22;10873;51.132;16.848;2023-05-10T11:20:41;26.20;48.10
21425;DHT22;10873;51.132;16.848;2023-05-10T11:23:14;26.30;48.20
21425;DHT22;10873;51.132;16.848;2023-05-10T11:25:42;26.30;48.20
21425;DHT22;10873;51.132;16.848;2023-05-10T11:28:10;26.30;48.30
21425;DHT22;10873;51.132;16.848;2023-05-10T11:30:36;26.30;48.20
21425;DHT22;10873;51.132;16.848;2023-05-10T11:33:03;26.30;48.20
21425;DHT22;10873;51.132;16.848;2023-05-10T11:35:29;26.30;48.20
21425;DHT22;10873;51.132;16.848;2023-05-10T11:37:55;26.30;48.20
21425;DHT22;10873;51.132;16.848;2023-05-10T11:40:23;26.30;48.10
21425;DHT22;10873;51.132;16.848;2023-05-10T11:42:52;26.30;48.10
21425;DHT22;10873;51.132;16.848;2023-05-10T11:45:23;26.20;48.10
21425;DHT22;10873;51.132;16.848;2023-05-10T11:47:49;26.20;48.20
21425;DHT22;10873;51.132;16.848;2023-05-10T11:50:16;26.20;48.20
21425;DHT22;10873;51.132;16.848;2023-05-10T11:52:43;26.20;49.10
21425;DHT22;10873;51.132;16.848;2023-05-10T11:55:09;26.20;48.40
21425;DHT22;10873;51.132;16.848;2023-05-10T11:57:36;26.20;48.20
21425;DHT22;10873;51.132;16.848;2023-05-10T12:00:05;26.20;47.80
21425;DHT22;10873;51.132;16.848;2023-05-10T12:02:32;26.20;47.70
21425;DHT22;10873;51.132;16.848;2023-05-10T12:04:58;26.10;47.50
21425;DHT22;10873;51.132;16.848;2023-05-10T12:07:26;26.10;47.60
21425;DHT22;10873;51.132;16.848;2023-05-10T12:10:05;26.20;47.60
21425;DHT22;10873;51.132;16.848;2023-05-10T12:12:37;26.20;47.60
21425;DHT22;10873;51.132;16.848;2023-05-10T12:15:05;26.10;47.50
21425;DHT22;10873;51.132;16.848;2023-05-10T12:17:32;26.10;47.40
21425;DHT22;10873;51.132;16.848;2023-05-10T12:19:59;26.10;47.40
21425;DHT22;10873;51.132;16.848;2023-05-10T12:22:25;26.10;47.40
21425;DHT22;10873;51.132;16.848;2023-05-10T12:24:51;26.10;47.40
21425;DHT22;10873;51.132;16.848;2023-05-10T12:27:18;26.10;47.50
21425;DHT22;10873;51.132;16.848;2023-05-10T12:29:45;26.10;47.50
21425;DHT22;10873;51.132;16.848;2023-05-10T12:32:11;26.10;47.50
21425;DHT22;10873;51.132;16.848;2023-05-10T12:34:37;26.00;47.40
21425;DHT22;10873;51.132;16.848;2023-05-10T12:37:04;26.00;47.40
21425;DHT22;10873;51.132;16.848;2023-05-10T12:39:40;26.00;47.40
21425;DHT22;10873;51.132;16.848;2023-05-10T12:42:07;26.00;47.50
21425;DHT22;10873;51.132;16.848;2023-05-10T12:44:32;26.00;47.50
21425;DHT22;10873;51.132;16.848;2023-05-10T12:47:00;26.00;47.40
21425;DHT22;10873;51.132;16.848;2023-05-10T12:49:26;26.00;47.50
21425;DHT22;10873;51.132;16.848;2023-05-10T12:51:52;26.00;47.50
21425;DHT22;10873;51.132;16.848;2023-05-10T12:54:18;26.00;47.50
21425;DHT22;10873;51.132;16.848;2023-05-10T12:56:44;26.00;47.40
21425;DHT22;10873;51.132;16.848;2023-05-10T12:59:10;26.00;47.40
21425;DHT22;10873;51.132;16.848;2023-05-10T13:01:36;25.90;47.30
21425;DHT22;10873;51.132;16.848;2023-05-10T13:04:03;26.00;47.20
21425;DHT22;10873;51.132;16.848;2023-05-10T13:06:30;25.90;47.10
21425;DHT22;10873;51.132;16.848;2023-05-10T13:08:56;25.90;47.20
21425;DHT22;10873;51.132;16.848;2023-05-10T13:11:23;25.90;47.30
21425;DHT22;10873;51.132;16.848;2023-05-10T13:13:49;25.90;47.50
21425;DHT22;10873;51.132;16.848;2023-05-10T13:16:15;25.90;47.50
21425;DHT22;10873;51.132;16.848;2023-05-10T13:18:41;25.90;47.60
21425;DHT22;10873;51.132;16.848;2023-05-10T13:21:08;25.90;47.60
21425;DHT22;10873;51.132;16.848;2023-05-10T13:23:34;25.90;47.60
21425;DHT22;10873;51.132;16.848;2023-05-10T13:26:01;25.90;47.60
21425;DHT22;10873;51.132;16.848;2023-05-10T13:28:27;25.90;47.50
21425;DHT22;10873;51.132;16.848;2023-05-10T13:30:53;25.80;47.40
21425;DHT22;10873;51.132;16.848;2023-05-10T13:33:19;25.90;47.50
21425;DHT22;10873;51.132;16.848;2023-05-10T13:35:45;25.90;47.50
21425;DHT22;10873;51.132;16.848;2023-05-10T13:38:12;25.90;47.40
21425;DHT22;10873;51.132;16.848;2023-05-10T13:40:39;25.90;47.50
21425;DHT22;10873;51.132;16.848;2023-05-10T13:43:05;25.90;47.50
21425;DHT22;10873;51.132;16.848;2023-05-10T13:45:31;25.80;47.50
21425;DHT22;10873;51.132;16.848;2023-05-10T13:47:57;25.90;47.40
21425;DHT22;10873;51.132;16.848;2023-05-10T13:50:23;25.80;47.30
21425;DHT22;10873;51.132;16.848;2023-05-10T13:52:49;25.80;47.30
21425;DHT22;10873;51.132;16.848;2023-05-10T13:55:17;25.80;47.30
21425;DHT22;10873;51.132;16.848;2023-05-10T13:57:43;25.80;47.30
21425;DHT22;10873;51.132;16.848;2023-05-10T14:00:10;25.80;47.50
21425;DHT22;10873;51.132;16.848;2023-05-10T14:02:36;25.80;47.50
21425;DHT22;10873;51.132;16.848;2023-05-10T14:05:02;25.90;47.60
21425;DHT22;10873;51.132;16.848;2023-05-10T14:07:28;25.90;47.70
21425;DHT22;10873;51.132;16.848;2023-05-10T14:09:55;25.90;47.60
21425;DHT22;10873;51.132;16.848;2023-05-10T14:12:22;25.90;47.50
21425;DHT22;10873;51.132;16.848;2023-05-10T14:14:48;25.90;47.40
21425;DHT22;10873;51.132;16.848;2023-05-10T14:17:14;25.90;47.30
21425;DHT22;10873;51.132;16.848;2023-05-10T14:19:41;25.90;47.30
21425;DHT22;10873;51.132;16.848;2023-05-10T14:22:07;25.90;47.30
21425;DHT22;10873;51.132;16.848;2023-05-10T14:24:33;25.90;47.30
21425;DHT22;10873;51.132;16.848;2023-05-10T14:26:59;25.90;47.20
21425;DHT22;10873;51.132;16.848;2023-05-10T14:29:27;25.90;47.20
21425;DHT22;10873;51.132;16.848;2023-05-10T14:31:53;25.90;47.20
21425;DHT22;10873;51.132;16.848;2023-05-10T14:34:19;25.90;47.20
21425;DHT22;10873;51.132;16.848;2023-05-10T14:36:45;25.90;47.30
21425;DHT22;10873;51.132;16.848;2023-05-10T14:39:11;25.90;47.30
21425;DHT22;10873;51.132;16.848;2023-05-10T14:41:38;25.90;47.30
21425;DHT22;10873;51.132;16.848;2023-05-10T14:44:07;25.90;47.30
21425;DHT22;10873;51.132;16.848;2023-05-10T14:46:34;25.90;47.30
21425;DHT22;10873;51.132;16.848;2023-05-10T14:49:00;25.90;47.30
21425;DHT22;10873;51.132;16.848;2023-05-10T14:51:26;25.90;47.40
21425;DHT22;10873;51.132;16.848;2023-05-10T14:53:52;25.90;47.40
21425;DHT22;10873;51.132;16.848;2023-05-10T14:56:18;25.90;47.40
21425;DHT22;10873;51.132;16.848;2023-05-10T14:58:44;25.90;47.30
21425;DHT22;10873;51.132;16.848;2023-05-10T15:01:10;25.90;47.20
21425;DHT22;10873;51.132;16.848;2023-05-10T15:03:38;25.90;47.20
21425;DHT22;10873;51.132;16.848;2023-05-10T15:06:04;25.80;47.10
21425;DHT22;10873;51.132;16.848;2023-05-10T15:08:31;25.80;47.10
21425;DHT22;10873;51.132;16.848;2023-05-10T15:10:57;25.80;47.20
21425;DHT22;10873;51.132;16.848;2023-05-10T15:13:23;25.80;47.20
21425;DHT22;10873;51.132;16.848;2023-05-10T15:15:49;25.80;47.20
21425;DHT22;10873;51.132;16.848;2023-05-10T15:18:15;25.80;47.20
21425;DHT22;10873;51.132;16.848;2023-05-10T15:20:42;25.90;47.30